sensor_id;sensor_type;location;lat;lon;timestamp;P1;durP1;ratioP1;P2;durP2;ratioP2
30743;SDS011;17486;46.738;7.622;2023-03-11T00:01:30;1.52;;;0.60;;
30743;SDS011;17486;46.738;7.622;2023-03-11T00:03:55;0.70;;;0.70;;
30743;SDS011;17486;46.738;7.622;2023-03-11T00:06:22;0.70;;;0.70;;
30743;SDS011;17486;46.738;7.622;2023-03-11T00:08:47;0.55;;;0.55;;
30743;SDS011;17486;46.738;7.622;2023-03-11T00:11:13;0.30;;;0.30;;
30743;SDS011;17486;46.738;7.622;2023-03-11T00:13:39;0.20;;;0.20;;
30743;SDS011;17486;46.738;7.622;2023-03-11T00:16:05;0.95;;;0.20;;
30743;SDS011;17486;46.738;7.622;2023-03-11T00:18:30;0.10;;;0.10;;
30743;SDS011;17486;46.738;7.622;2023-03-11T00:20:57;0.20;;;0.17;;
30743;SDS011;17486;46.738;7.622;2023-03-11T00:23:24;0.10;;;0.10;;
30743;SDS011;17486;46.738;7.622;2023-03-11T00:25:50;0.20;;;0.20;;
30743;SDS011;17486;46.738;7.622;2023-03-11T00:28:16;0.20;;;0.20;;
30743;SDS011;17486;46.738;7.622;2023-03-11T00:30:42;0.10;;;0.10;;
30743;SDS011;17486;46.738;7.622;2023-03-11T00:33:10;0.10;;;0.10;;
30743;SDS011;17486;46.738;7.622;2023-03-11T00:35:37;0.10;;;0.10;;
30743;SDS011;17486;46.738;7.622;2023-03-11T00:38:04;0.10;;;0.10;;
30743;SDS011;17486;46.738;7.622;2023-03-11T00:40:32;0.30;;;0.17;;
30743;SDS011;17486;46.738;7.622;2023-03-11T00:42:59;0.10;;;0.10;;
30743;SDS011;17486;46.738;7.622;2023-03-11T00:45:25;0.13;;;0.10;;
30743;SDS011;17486;46.738;7.622;2023-03-11T00:47:51;1.27;;;0.10;;
30743;SDS011;17486;46.738;7.622;2023-03-11T00:50:19;0.10;;;0.10;;
30743;SDS011;17486;46.738;7.622;2023-03-11T00:52:47;0.13;;;0.10;;
30743;SDS011;17486;46.738;7.622;2023-03-11T00:55:14;0.10;;;0.03;;
30743;SDS011;17486;46.738;7.622;2023-03-11T00:57:42;0.10;;;0.10;;
30743;SDS011;17486;46.738;7.622;2023-03-11T01:00:08;0.20;;;0.20;;
30743;SDS011;17486;46.738;7.622;2023-03-11T01:02:38;0.10;;;0.10;;
30743;SDS011;17486;46.738;7.622;2023-03-11T01:05:04;0.30;;;0.20;;
30743;SDS011;17486;46.738;7.622;2023-03-11T01:07:30;0.38;;;0.30;;
30743;SDS011;17486;46.738;7.622;2023-03-11T01:09:57;0.63;;;0.30;;
30743;SDS011;17486;46.738;7.622;2023-03-11T01:12:23;0.20;;;0.20;;
30743;SDS011;17486;46.738;7.622;2023-03-11T01:14:48;0.20;;;0.10;;
30743;SDS011;17486;46.738;7.622;2023-03-11T01:17:14;0.10;;;0.10;;
30743;SDS011;17486;46.738;7.622;2023-03-11T01:19:39;0.10;;;0.10;;
30743;SDS011;17486;46.738;7.622;2023-03-11T01:22:04;0.10;;;0.10;;
30743;SDS011;17486;46.738;7.622;2023-03-11T01:24:30;0.10;;;0.10;;
30743;SDS011;17486;46.738;7.622;2023-03-11T01:26:55;0.10;;;0.10;;
30743;SDS011;17486;46.738;7.622;2023-03-11T01:29:20;0.10;;;0.10;;
30743;SDS011;17486;46.738;7.622;2023-03-11T01:31:46;0.35;;;0.20;;
30743;SDS011;17486;46.738;7.622;2023-03-11T01:34:11;0.10;;;0.10;;
30743;SDS011;17486;46.738;7.622;2023-03-11T01:36:37;0.10;;;0.10;;
30743;SDS011;17486;46.738;7.622;2023-03-11T01:39:02;0.85;;;0.20;;
30743;SDS011;17486;46.738;7.622;2023-03-11T01:41:28;0.20;;;0.20;;
30743;SDS011;17486;46.738;7.622;2023-03-11T01:43:54;0.20;;;0.20;;
30743;SDS011;17486;46.738;7.622;2023-03-11T01:48:53;0.08;;;0.05;;
30743;SDS011;17486;46.738;7.622;2023-03-11T01:51:24;0.20;;;0.10;;
30743;SDS011;17486;46.738;7.622;2023-03-11T01:53:54;0.10;;;0.10;;
30743;SDS011;17486;46.738;7.622;2023-03-11T01:56:21;0.10;;;0.10;;
30743;SDS011;17486;46.738;7.622;2023-03-11T01:58:48;0.22;;;0.20;;
30743;SDS011;17486;46.738;7.622;2023-03-11T02:01:16;0.30;;;0.10;;
30743;SDS011;17486;46.738;7.622;2023-03-11T02:03:44;0.10;;;0.10;;
30743;SDS011;17486;46.738;7.622;2023-03-11T02:06:11;0.17;;;0.17;;
30743;SDS011;17486;46.738;7.622;2023-03-11T02:08:39;0.10;;;0.10;;
30743;SDS011;17486;46.738;7.622;2023-03-11T02:11:07;0.10;;;0.10;;
30743;SDS011;17486;46.738;7.622;2023-03-11T02:13:36;0.10;;;0.10;;
30743;SDS011;17486;46.738;7.622;2023-03-11T02:16:03;0.13;;;0.13;;
30743;SDS011;17486;46.738;7.622;2023-03-11T02:18:29;0.10;;;0.10;;
30743;SDS011;17486;46.738;7.622;2023-03-11T02:26:20;0.10;;;0.10;;
30743;SDS011;17486;46.738;7.622;2023-03-11T02:29:07;0.20;;;0.20;;
30743;SDS011;17486;46.738;7.622;2023-03-11T02:31:36;0.10;;;0.10;;
30743;SDS011;17486;46.738;7.622;2023-03-11T02:34:04;0.30;;;0.10;;
30743;SDS011;17486;46.738;7.622;2023-03-11T02:36:38;0.10;;;0.10;;
30743;SDS011;17486;46.738;7.622;2023-03-11T02:39:06;0.13;;;0.13;;
30743;SDS011;17486;46.738;7.622;2023-03-11T02:41:37;0.10;;;0.10;;
30743;SDS011;17486;46.738;7.622;2023-03-11T02:44:06;0.10;;;0.10;;
30743;SDS011;17486;46.738;7.622;2023-03-11T02:46:35;0.20;;;0.20;;
30743;SDS011;17486;46.738;7.622;2023-03-11T02:49:02;0.20;;;0.20;;
30743;SDS011;17486;46.738;7.622;2023-03-11T02:51:28;0.10;;;0.10;;
30743;SDS011;17486;46.738;7.622;2023-03-11T02:53:55;0.20;;;0.20;;
30743;SDS011;17486;46.738;7.622;2023-03-11T02:56:23;0.20;;;0.20;;
30743;SDS011;17486;46.738;7.622;2023-03-11T02:58:49;0.20;;;0.20;;
30743;SDS011;17486;46.738;7.622;2023-03-11T03:01:14;2.40;;;0.30;;
30743;SDS011;17486;46.738;7.622;2023-03-11T03:03:40;0.20;;;0.20;;
30743;SDS011;17486;46.738;7.622;2023-03-11T03:06:06;0.10;;;0.10;;
30743;SDS011;17486;46.738;7.622;2023-03-11T03:08:31;0.68;;;0.20;;
30743;SDS011;17486;46.738;7.622;2023-03-11T03:10:57;0.20;;;0.20;;
30743;SDS011;17486;46.738;7.622;2023-03-11T03:13:24;0.17;;;0.17;;
30743;SDS011;17486;46.738;7.622;2023-03-11T03:15:50;0.10;;;0.10;;
30743;SDS011;17486;46.738;7.622;2023-03-11T03:18:15;0.10;;;0.10;;
30743;SDS011;17486;46.738;7.622;2023-03-11T03:20:41;0.20;;;0.20;;
30743;SDS011;17486;46.738;7.622;2023-03-11T03:23:06;0.15;;;0.15;;
30743;SDS011;17486;46.738;7.622;2023-03-11T03:25:32;1.00;;;0.28;;
30743;SDS011;17486;46.738;7.622;2023-03-11T03:27:57;0.10;;;0.10;;
30743;SDS011;17486;46.738;7.622;2023-03-11T03:30:23;0.13;;;0.13;;
30743;SDS011;17486;46.738;7.622;2023-03-11T03:32:48;0.45;;;0.25;;
30743;SDS011;17486;46.738;7.622;2023-03-11T03:35:13;0.20;;;0.20;;
30743;SDS011;17486;46.738;7.622;2023-03-11T03:37:39;0.30;;;0.30;;
30743;SDS011;17486;46.738;7.622;2023-03-11T03:40:05;0.20;;;0.20;;
30743;SDS011;17486;46.738;7.622;2023-03-11T03:42:33;0.30;;;0.30;;
30743;SDS011;17486;46.738;7.622;2023-03-11T03:45:00;0.20;;;0.20;;
30743;SDS011;17486;46.738;7.622;2023-03-11T03:47:26;0.20;;;0.20;;
30743;SDS011;17486;46.738;7.622;2023-03-11T03:49:51;0.20;;;0.20;;
30743;SDS011;17486;46.738;7.622;2023-03-11T03:52:16;0.20;;;0.20;;
30743;SDS011;17486;46.738;7.622;2023-03-11T03:54:42;0.10;;;0.10;;
30743;SDS011;17486;46.738;7.622;2023-03-11T03:57:08;0.15;;;0.15;;
30743;SDS011;17486;46.738;7.622;2023-03-11T03:59:33;0.10;;;0.10;;
30743;SDS011;17486;46.738;7.622;2023-03-11T04:01:59;0.32;;;0.30;;
30743;SDS011;17486;46.738;7.622;2023-03-11T04:04:24;0.25;;;0.22;;
30743;SDS011;17486;46.738;7.622;2023-03-11T04:06:50;0.20;;;0.20;;
30743;SDS011;17486;46.738;7.622;2023-03-11T04:09:15;0.25;;;0.20;;
30743;SDS011;17486;46.738;7.622;2023-03-11T04:11:41;0.17;;;0.17;;
30743;SDS011;17486;46.738;7.622;2023-03-11T04:14:06;3.50;;;0.30;;
30743;SDS011;17486;46.738;7.622;2023-03-11T04:16:32;0.20;;;0.20;;
30743;SDS011;17486;46.738;7.622;2023-03-11T04:18:57;0.73;;;0.40;;
30743;SDS011;17486;46.738;7.622;2023-03-11T04:21:22;0.47;;;0.10;;
30743;SDS011;17486;46.738;7.622;2023-03-11T04:23:48;0.15;;;0.15;;
30743;SDS011;17486;46.738;7.622;2023-03-11T04:26:13;0.20;;;0.20;;
30743;SDS011;17486;46.738;7.622;2023-03-11T04:28:39;0.10;;;0.10;;
30743;SDS011;17486;46.738;7.622;2023-03-11T04:31:06;0.20;;;0.20;;
30743;SDS011;17486;46.738;7.622;2023-03-11T04:33:31;0.10;;;0.10;;
30743;SDS011;17486;46.738;7.622;2023-03-11T04:35:57;0.20;;;0.20;;
30743;SDS011;17486;46.738;7.622;2023-03-11T04:38:22;0.30;;;0.30;;
30743;SDS011;17486;46.738;7.622;2023-03-11T04:40:48;0.10;;;0.10;;
30743;SDS011;17486;46.738;7.622;2023-03-11T04:43:13;0.20;;;0.20;;
30743;SDS011;17486;46.738;7.622;2023-03-11T04:45:39;1.27;;;0.22;;
30743;SDS011;17486;46.738;7.622;2023-03-11T04:48:06;0.20;;;0.20;;
30743;SDS011;17486;46.738;7.622;2023-03-11T04:50:32;0.10;;;0.10;;
30743;SDS011;17486;46.738;7.622;2023-03-11T04:52:57;0.20;;;0.20;;
30743;SDS011;17486;46.738;7.622;2023-03-11T04:55:23;0.10;;;0.10;;
30743;SDS011;17486;46.738;7.622;2023-03-11T04:57:48;0.98;;;0.20;;
30743;SDS011;17486;46.738;7.622;2023-03-11T05:00:14;0.20;;;0.20;;
30743;SDS011;17486;46.738;7.622;2023-03-11T05:02:40;0.10;;;0.10;;
30743;SDS011;17486;46.738;7.622;2023-03-11T05:05:06;0.10;;;0.10;;
30743;SDS011;17486;46.738;7.622;2023-03-11T05:07:34;0.10;;;0.10;;
30743;SDS011;17486;46.738;7.622;2023-03-11T05:10:00;0.20;;;0.20;;
30743;SDS011;17486;46.738;7.622;2023-03-11T05:12:26;0.20;;;0.20;;
30743;SDS011;17486;46.738;7.622;2023-03-11T05:14:51;0.20;;;0.20;;
30743;SDS011;17486;46.738;7.622;2023-03-11T05:17:17;0.15;;;0.15;;
30743;SDS011;17486;46.738;7.622;2023-03-11T05:19:43;0.20;;;0.20;;
30743;SDS011;17486;46.738;7.622;2023-03-11T05:22:09;0.28;;;0.28;;
30743;SDS011;17486;46.738;7.622;2023-03-11T05:24:34;0.17;;;0.17;;
30743;SDS011;17486;46.738;7.622;2023-03-11T05:27:00;0.77;;;0.30;;
30743;SDS011;17486;46.738;7.622;2023-03-11T05:29:26;0.10;;;0.10;;
30743;SDS011;17486;46.738;7.622;2023-03-11T05:31:52;0.17;;;0.17;;
30743;SDS011;17486;46.738;7.622;2023-03-11T05:34:18;0.20;;;0.20;;
30743;SDS011;17486;46.738;7.622;2023-03-11T05:36:44;0.25;;;0.20;;
30743;SDS011;17486;46.738;7.622;2023-03-11T05:39:10;0.40;;;0.40;;
30743;SDS011;17486;46.738;7.622;2023-03-11T05:41:36;0.30;;;0.30;;
30743;SDS011;17486;46.738;7.622;2023-03-11T05:44:01;0.30;;;0.30;;
30743;SDS011;17486;46.738;7.622;2023-03-11T05:46:27;0.30;;;0.30;;
30743;SDS011;17486;46.738;7.622;2023-03-11T05:48:52;0.65;;;0.40;;
30743;SDS011;17486;46.738;7.622;2023-03-11T05:51:18;1.25;;;0.43;;
30743;SDS011;17486;46.738;7.622;2023-03-11T05:53:45;0.30;;;0.30;;
30743;SDS011;17486;46.738;7.622;2023-03-11T05:56:16;0.22;;;0.22;;
30743;SDS011;17486;46.738;7.622;2023-03-11T05:58:43;1.38;;;0.20;;
30743;SDS011;17486;46.738;7.622;2023-03-11T06:01:13;0.20;;;0.20;;
30743;SDS011;17486;46.738;7.622;2023-03-11T06:03:40;0.28;;;0.28;;
30743;SDS011;17486;46.738;7.622;2023-03-11T06:06:07;1.15;;;0.30;;
30743;SDS011;17486;46.738;7.622;2023-03-11T06:08:35;0.35;;;0.30;;
30743;SDS011;17486;46.738;7.622;2023-03-11T06:11:08;0.30;;;0.30;;
30743;SDS011;17486;46.738;7.622;2023-03-11T06:13:34;2.28;;;0.50;;
30743;SDS011;17486;46.738;7.622;2023-03-11T06:16:01;0.43;;;0.40;;
30743;SDS011;17486;46.738;7.622;2023-03-11T06:18:26;0.50;;;0.50;;
30743;SDS011;17486;46.738;7.622;2023-03-11T06:20:52;0.40;;;0.40;;
30743;SDS011;17486;46.738;7.622;2023-03-11T06:23:18;0.25;;;0.25;;
30743;SDS011;17486;46.738;7.622;2023-03-11T06:25:53;0.57;;;0.57;;
30743;SDS011;17486;46.738;7.622;2023-03-11T06:28:22;0.40;;;0.40;;
30743;SDS011;17486;46.738;7.622;2023-03-11T06:30:47;0.47;;;0.47;;
30743;SDS011;17486;46.738;7.622;2023-03-11T06:33:13;0.80;;;0.80;;
30743;SDS011;17486;46.738;7.622;2023-03-11T06:35:39;1.02;;;1.02;;
30743;SDS011;17486;46.738;7.622;2023-03-11T06:38:04;1.05;;;1.05;;
30743;SDS011;17486;46.738;7.622;2023-03-11T06:40:30;0.75;;;0.75;;
30743;SDS011;17486;46.738;7.622;2023-03-11T06:42:55;0.85;;;0.70;;
30743;SDS011;17486;46.738;7.622;2023-03-11T06:45:21;0.82;;;0.75;;
30743;SDS011;17486;46.738;7.622;2023-03-11T06:47:46;0.73;;;0.73;;
30743;SDS011;17486;46.738;7.622;2023-03-11T06:50:11;1.33;;;1.23;;
30743;SDS011;17486;46.738;7.622;2023-03-11T06:52:37;1.42;;;1.20;;
30743;SDS011;17486;46.738;7.622;2023-03-11T06:55:02;1.48;;;1.35;;
30743;SDS011;17486;46.738;7.622;2023-03-11T06:57:28;1.35;;;1.20;;
30743;SDS011;17486;46.738;7.622;2023-03-11T06:59:55;1.25;;;1.15;;
30743;SDS011;17486;46.738;7.622;2023-03-11T07:02:20;1.08;;;0.95;;
30743;SDS011;17486;46.738;7.622;2023-03-11T07:04:49;1.00;;;0.98;;
30743;SDS011;17486;46.738;7.622;2023-03-11T07:07:15;2.03;;;1.45;;
30743;SDS011;17486;46.738;7.622;2023-03-11T07:09:41;1.90;;;1.35;;
30743;SDS011;17486;46.738;7.622;2023-03-11T07:12:06;1.25;;;1.15;;
30743;SDS011;17486;46.738;7.622;2023-03-11T07:14:32;1.55;;;1.20;;
30743;SDS011;17486;46.738;7.622;2023-03-11T07:16:57;0.90;;;0.90;;
30743;SDS011;17486;46.738;7.622;2023-03-11T07:19:23;0.80;;;0.80;;
30743;SDS011;17486;46.738;7.622;2023-03-11T07:21:48;1.08;;;1.08;;
30743;SDS011;17486;46.738;7.622;2023-03-11T07:24:14;1.10;;;1.10;;
30743;SDS011;17486;46.738;7.622;2023-03-11T07:26:39;1.33;;;1.30;;
30743;SDS011;17486;46.738;7.622;2023-03-11T07:29:06;2.05;;;1.73;;
30743;SDS011;17486;46.738;7.622;2023-03-11T07:31:32;1.50;;;1.40;;
30743;SDS011;17486;46.738;7.622;2023-03-11T07:34:00;1.60;;;1.50;;
30743;SDS011;17486;46.738;7.622;2023-03-11T07:36:27;1.80;;;1.70;;
30743;SDS011;17486;46.738;7.622;2023-03-11T07:38:55;1.52;;;1.35;;
30743;SDS011;17486;46.738;7.622;2023-03-11T07:41:23;1.40;;;1.40;;
30743;SDS011;17486;46.738;7.622;2023-03-11T07:43:52;1.52;;;1.42;;
30743;SDS011;17486;46.738;7.622;2023-03-11T07:46:19;1.60;;;1.50;;
30743;SDS011;17486;46.738;7.622;2023-03-11T07:48:46;1.67;;;1.58;;
30743;SDS011;17486;46.738;7.622;2023-03-11T07:51:14;1.73;;;1.55;;
30743;SDS011;17486;46.738;7.622;2023-03-11T07:53:41;1.58;;;1.48;;
30743;SDS011;17486;46.738;7.622;2023-03-11T07:56:07;114.43;;;75.70;;
30743;SDS011;17486;46.738;7.622;2023-03-11T07:58:34;208.43;;;127.97;;
30743;SDS011;17486;46.738;7.622;2023-03-11T08:01:04;136.27;;;82.70;;
30743;SDS011;17486;46.738;7.622;2023-03-11T08:03:31;138.07;;;84.60;;
30743;SDS011;17486;46.738;7.622;2023-03-11T08:05:57;60.28;;;36.33;;
30743;SDS011;17486;46.738;7.622;2023-03-11T08:08:22;18.33;;;9.95;;
30743;SDS011;17486;46.738;7.622;2023-03-11T08:10:48;6.00;;;4.30;;
30743;SDS011;17486;46.738;7.622;2023-03-11T08:13:13;3.50;;;3.05;;
30743;SDS011;17486;46.738;7.622;2023-03-11T08:15:39;3.00;;;2.65;;
30743;SDS011;17486;46.738;7.622;2023-03-11T08:18:04;26.02;;;16.48;;
30743;SDS011;17486;46.738;7.622;2023-03-11T08:20:29;159.20;;;100.63;;
30743;SDS011;17486;46.738;7.622;2023-03-11T08:22:55;218.23;;;134.55;;
30743;SDS011;17486;46.738;7.622;2023-03-11T08:25:20;160.70;;;101.72;;
30743;SDS011;17486;46.738;7.622;2023-03-11T08:27:46;69.22;;;44.08;;
30743;SDS011;17486;46.738;7.622;2023-03-11T08:30:12;53.97;;;43.20;;
30743;SDS011;17486;46.738;7.622;2023-03-11T08:32:38;92.20;;;60.88;;
30743;SDS011;17486;46.738;7.622;2023-03-11T08:35:03;292.55;;;174.60;;
30743;SDS011;17486;46.738;7.622;2023-03-11T08:37:29;151.52;;;88.07;;
30743;SDS011;17486;46.738;7.622;2023-03-11T08:39:55;49.85;;;28.52;;
30743;SDS011;17486;46.738;7.622;2023-03-11T08:42:21;15.52;;;9.35;;
30743;SDS011;17486;46.738;7.622;2023-03-11T08:44:46;5.88;;;4.70;;
30743;SDS011;17486;46.738;7.622;2023-03-11T08:47:12;3.33;;;3.00;;
30743;SDS011;17486;46.738;7.622;2023-03-11T08:49:38;3.20;;;2.90;;
30743;SDS011;17486;46.738;7.622;2023-03-11T08:52:04;2.78;;;2.55;;
30743;SDS011;17486;46.738;7.622;2023-03-11T08:54:30;2.95;;;2.75;;
30743;SDS011;17486;46.738;7.622;2023-03-11T08:56:56;2.70;;;2.50;;
30743;SDS011;17486;46.738;7.622;2023-03-11T08:59:22;51.10;;;35.95;;
30743;SDS011;17486;46.738;7.622;2023-03-11T09:01:48;142.07;;;85.50;;
30743;SDS011;17486;46.738;7.622;2023-03-11T09:04:13;133.20;;;76.47;;
30743;SDS011;17486;46.738;7.622;2023-03-11T09:06:42;105.15;;;59.78;;
30743;SDS011;17486;46.738;7.622;2023-03-11T09:09:11;33.53;;;18.95;;
30743;SDS011;17486;46.738;7.622;2023-03-11T09:11:37;9.30;;;6.45;;
30743;SDS011;17486;46.738;7.622;2023-03-11T09:14:03;4.85;;;3.83;;
30743;SDS011;17486;46.738;7.622;2023-03-11T09:16:29;3.22;;;2.58;;
30743;SDS011;17486;46.738;7.622;2023-03-11T09:18:54;3.95;;;3.30;;
30743;SDS011;17486;46.738;7.622;2023-03-11T09:21:20;2.90;;;2.70;;
30743;SDS011;17486;46.738;7.622;2023-03-11T09:23:46;3.80;;;3.50;;
30743;SDS011;17486;46.738;7.622;2023-03-11T09:26:12;4.03;;;3.63;;
30743;SDS011;17486;46.738;7.622;2023-03-11T09:28:39;3.90;;;3.50;;
30743;SDS011;17486;46.738;7.622;2023-03-11T09:31:05;3.03;;;2.78;;
30743;SDS011;17486;46.738;7.622;2023-03-11T09:33:34;3.05;;;2.75;;
30743;SDS011;17486;46.738;7.622;2023-03-11T09:36:01;3.60;;;3.13;;
30743;SDS011;17486;46.738;7.622;2023-03-11T09:38:26;3.67;;;3.20;;
30743;SDS011;17486;46.738;7.622;2023-03-11T09:43:34;4.55;;;4.15;;
30743;SDS011;17486;46.738;7.622;2023-03-11T09:48:52;3.60;;;3.30;;
30743;SDS011;17486;46.738;7.622;2023-03-11T09:51:21;33.65;;;21.58;;
30743;SDS011;17486;46.738;7.622;2023-03-11T09:53:54;89.90;;;53.05;;
30743;SDS011;17486;46.738;7.622;2023-03-11T09:56:26;51.03;;;29.13;;
30743;SDS011;17486;46.738;7.622;2023-03-11T09:58:59;14.75;;;9.05;;
30743;SDS011;17486;46.738;7.622;2023-03-11T10:04:01;3.13;;;2.72;;
30743;SDS011;17486;46.738;7.622;2023-03-11T10:06:32;2.40;;;2.20;;
30743;SDS011;17486;46.738;7.622;2023-03-11T10:28:35;68.57;;;40.90;;
30743;SDS011;17486;46.738;7.622;2023-03-11T10:31:19;108.43;;;60.17;;
30743;SDS011;17486;46.738;7.622;2023-03-11T10:36:22;13.02;;;9.25;;
30743;SDS011;17486;46.738;7.622;2023-03-11T10:38:51;13.70;;;12.25;;
30743;SDS011;17486;46.738;7.622;2023-03-11T10:41:20;17.73;;;16.23;;
30743;SDS011;17486;46.738;7.622;2023-03-11T10:44:14;20.95;;;19.15;;
30743;SDS011;17486;46.738;7.622;2023-03-11T10:46:43;14.77;;;13.48;;
30743;SDS011;17486;46.738;7.622;2023-03-11T10:49:12;9.90;;;9.05;;
30743;SDS011;17486;46.738;7.622;2023-03-11T10:51:39;6.72;;;6.07;;
30743;SDS011;17486;46.738;7.622;2023-03-11T10:54:06;128.15;;;82.57;;
30743;SDS011;17486;46.738;7.622;2023-03-11T10:56:33;321.40;;;174.20;;
30743;SDS011;17486;46.738;7.622;2023-03-11T10:58:58;144.10;;;78.45;;
30743;SDS011;17486;46.738;7.622;2023-03-11T11:01:25;38.33;;;21.25;;
30743;SDS011;17486;46.738;7.622;2023-03-11T11:03:53;10.55;;;6.65;;
30743;SDS011;17486;46.738;7.622;2023-03-11T11:09:19;2.45;;;2.25;;
30743;SDS011;17486;46.738;7.622;2023-03-11T11:12:31;3.42;;;3.13;;
30743;SDS011;17486;46.738;7.622;2023-03-11T11:17:13;2.72;;;2.53;;
30743;SDS011;17486;46.738;7.622;2023-03-11T11:20:00;1.25;;;1.20;;
30743;SDS011;17486;46.738;7.622;2023-03-11T11:22:37;1.40;;;1.30;;
30743;SDS011;17486;46.738;7.622;2023-03-11T11:25:56;1.30;;;1.20;;
30743;SDS011;17486;46.738;7.622;2023-03-11T11:28:23;0.80;;;0.80;;
30743;SDS011;17486;46.738;7.622;2023-03-11T11:30:55;0.73;;;0.73;;
30743;SDS011;17486;46.738;7.622;2023-03-11T11:33:32;0.85;;;0.85;;
30743;SDS011;17486;46.738;7.622;2023-03-11T11:36:04;1.40;;;0.80;;
30743;SDS011;17486;46.738;7.622;2023-03-11T11:38:36;0.93;;;0.90;;
30743;SDS011;17486;46.738;7.622;2023-03-11T11:41:01;0.60;;;0.60;;
30743;SDS011;17486;46.738;7.622;2023-03-11T11:46:36;1.10;;;1.10;;
30743;SDS011;17486;46.738;7.622;2023-03-11T11:49:18;1.40;;;1.30;;
30743;SDS011;17486;46.738;7.622;2023-03-11T11:52:01;0.80;;;0.80;;
30743;SDS011;17486;46.738;7.622;2023-03-11T11:54:32;1.02;;;1.02;;
30743;SDS011;17486;46.738;7.622;2023-03-11T11:57:07;0.90;;;0.90;;
30743;SDS011;17486;46.738;7.622;2023-03-11T11:59:35;0.82;;;0.82;;
30743;SDS011;17486;46.738;7.622;2023-03-11T12:04:47;324.33;;;194.52;;
30743;SDS011;17486;46.738;7.622;2023-03-11T12:07:23;92.22;;;54.38;;
30743;SDS011;17486;46.738;7.622;2023-03-11T12:13:06;3.30;;;2.45;;
30743;SDS011;17486;46.738;7.622;2023-03-11T12:26:57;0.90;;;0.90;;
30743;SDS011;17486;46.738;7.622;2023-03-11T12:29:39;0.60;;;0.60;;
30743;SDS011;17486;46.738;7.622;2023-03-11T12:32:13;0.90;;;0.90;;
30743;SDS011;17486;46.738;7.622;2023-03-11T12:34:48;0.60;;;0.60;;
30743;SDS011;17486;46.738;7.622;2023-03-11T12:37:14;106.93;;;65.65;;
30743;SDS011;17486;46.738;7.622;2023-03-11T12:39:45;79.57;;;47.10;;
30743;SDS011;17486;46.738;7.622;2023-03-11T12:44:36;11.02;;;7.78;;
30743;SDS011;17486;46.738;7.622;2023-03-11T12:49:40;0.88;;;0.88;;
30743;SDS011;17486;46.738;7.622;2023-03-11T13:07:50;90.78;;;54.85;;
30743;SDS011;17486;46.738;7.622;2023-03-11T13:10:34;43.13;;;24.65;;
30743;SDS011;17486;46.738;7.622;2023-03-11T13:18:38;3.73;;;2.70;;
30743;SDS011;17486;46.738;7.622;2023-03-11T13:23:51;2.10;;;1.90;;
30743;SDS011;17486;46.738;7.622;2023-03-11T13:26:39;3.08;;;2.25;;
30743;SDS011;17486;46.738;7.622;2023-03-11T13:34:49;2.50;;;1.92;;
30743;SDS011;17486;46.738;7.622;2023-03-11T13:42:55;1.80;;;1.70;;
30743;SDS011;17486;46.738;7.622;2023-03-11T13:47:56;394.27;;;267.58;;
30743;SDS011;17486;46.738;7.622;2023-03-11T13:50:28;285.17;;;162.10;;
30743;SDS011;17486;46.738;7.622;2023-03-11T13:52:59;85.20;;;48.75;;
30743;SDS011;17486;46.738;7.622;2023-03-11T13:55:34;25.33;;;16.57;;
30743;SDS011;17486;46.738;7.622;2023-03-11T13:58:14;11.15;;;6.55;;
30743;SDS011;17486;46.738;7.622;2023-03-11T14:00:50;5.10;;;2.97;;
30743;SDS011;17486;46.738;7.622;2023-03-11T14:03:18;2.75;;;2.15;;
30743;SDS011;17486;46.738;7.622;2023-03-11T14:05:47;2.22;;;1.95;;
30743;SDS011;17486;46.738;7.622;2023-03-11T14:08:37;2.55;;;2.22;;
30743;SDS011;17486;46.738;7.622;2023-03-11T14:13:42;2.50;;;2.30;;
30743;SDS011;17486;46.738;7.622;2023-03-11T14:16:45;2.67;;;2.47;;
30743;SDS011;17486;46.738;7.622;2023-03-11T14:19:15;2.20;;;2.10;;
30743;SDS011;17486;46.738;7.622;2023-03-11T14:21:42;3.55;;;2.25;;
30743;SDS011;17486;46.738;7.622;2023-03-11T14:24:14;2.63;;;2.42;;
30743;SDS011;17486;46.738;7.622;2023-03-11T14:26:41;2.30;;;2.08;;
30743;SDS011;17486;46.738;7.622;2023-03-11T14:29:09;2.10;;;2.00;;
30743;SDS011;17486;46.738;7.622;2023-03-11T14:31:40;2.10;;;2.00;;
30743;SDS011;17486;46.738;7.622;2023-03-11T14:42:43;2.40;;;2.20;;
30743;SDS011;17486;46.738;7.622;2023-03-11T14:49:54;2.30;;;2.15;;
30743;SDS011;17486;46.738;7.622;2023-03-11T14:52:20;3.03;;;2.40;;
30743;SDS011;17486;46.738;7.622;2023-03-11T14:54:55;2.42;;;2.22;;
30743;SDS011;17486;46.738;7.622;2023-03-11T14:57:23;2.10;;;2.00;;
30743;SDS011;17486;46.738;7.622;2023-03-11T15:00:12;2.40;;;2.20;;
30743;SDS011;17486;46.738;7.622;2023-03-11T15:02:50;2.60;;;2.40;;
30743;SDS011;17486;46.738;7.622;2023-03-11T15:05:20;2.35;;;2.25;;
30743;SDS011;17486;46.738;7.622;2023-03-11T15:07:55;2.70;;;2.50;;
30743;SDS011;17486;46.738;7.622;2023-03-11T15:10:22;2.50;;;2.30;;
30743;SDS011;17486;46.738;7.622;2023-03-11T15:12:48;2.40;;;2.20;;
30743;SDS011;17486;46.738;7.622;2023-03-11T15:15:27;2.63;;;2.40;;
30743;SDS011;17486;46.738;7.622;2023-03-11T15:17:57;2.75;;;2.55;;
30743;SDS011;17486;46.738;7.622;2023-03-11T15:20:27;2.75;;;2.45;;
30743;SDS011;17486;46.738;7.622;2023-03-11T15:23:01;155.82;;;104.25;;
30743;SDS011;17486;46.738;7.622;2023-03-11T15:25:30;443.33;;;276.98;;
30743;SDS011;17486;46.738;7.622;2023-03-11T15:27:58;408.45;;;265.48;;
30743;SDS011;17486;46.738;7.622;2023-03-11T15:32:51;44.75;;;29.08;;
30743;SDS011;17486;46.738;7.622;2023-03-11T15:35:18;15.82;;;10.18;;
30743;SDS011;17486;46.738;7.622;2023-03-11T15:37:46;6.47;;;4.50;;
30743;SDS011;17486;46.738;7.622;2023-03-11T15:40:23;4.65;;;3.88;;
30743;SDS011;17486;46.738;7.622;2023-03-11T15:45:46;2.58;;;2.45;;
30743;SDS011;17486;46.738;7.622;2023-03-11T15:48:12;3.75;;;2.78;;
30743;SDS011;17486;46.738;7.622;2023-03-11T15:51:16;3.03;;;2.35;;
30743;SDS011;17486;46.738;7.622;2023-03-11T15:53:30;246.68;;;163.68;;
30743;SDS011;17486;46.738;7.622;2023-03-11T15:55:56;348.33;;;217.93;;
30743;SDS011;17486;46.738;7.622;2023-03-11T15:58:24;304.80;;;186.52;;
30743;SDS011;17486;46.738;7.622;2023-03-11T16:00:52;101.13;;;60.70;;
30743;SDS011;17486;46.738;7.622;2023-03-11T16:03:20;30.55;;;19.90;;
30743;SDS011;17486;46.738;7.622;2023-03-11T16:05:47;11.25;;;8.27;;
30743;SDS011;17486;46.738;7.622;2023-03-11T16:08:13;5.72;;;5.03;;
30743;SDS011;17486;46.738;7.622;2023-03-11T16:10:39;4.57;;;4.10;;
30743;SDS011;17486;46.738;7.622;2023-03-11T16:13:04;3.80;;;3.50;;
30743;SDS011;17486;46.738;7.622;2023-03-11T16:15:31;3.75;;;3.45;;
30743;SDS011;17486;46.738;7.622;2023-03-11T16:18:00;3.35;;;3.05;;
30743;SDS011;17486;46.738;7.622;2023-03-11T16:20:31;3.90;;;3.60;;
30743;SDS011;17486;46.738;7.622;2023-03-11T16:23:16;122.65;;;86.13;;
30743;SDS011;17486;46.738;7.622;2023-03-11T16:25:48;332.02;;;221.98;;
30743;SDS011;17486;46.738;7.622;2023-03-11T16:28:15;336.67;;;214.35;;
30743;SDS011;17486;46.738;7.622;2023-03-11T16:30:41;151.05;;;91.20;;
30743;SDS011;17486;46.738;7.622;2023-03-11T16:33:07;51.97;;;33.00;;
30743;SDS011;17486;46.738;7.622;2023-03-11T16:35:33;16.73;;;12.32;;
30743;SDS011;17486;46.738;7.622;2023-03-11T16:37:58;8.43;;;6.70;;
30743;SDS011;17486;46.738;7.622;2023-03-11T16:40:25;5.10;;;4.55;;
30743;SDS011;17486;46.738;7.622;2023-03-11T16:42:55;4.93;;;4.40;;
30743;SDS011;17486;46.738;7.622;2023-03-11T16:45:23;4.22;;;3.83;;
30743;SDS011;17486;46.738;7.622;2023-03-11T16:47:49;3.92;;;3.60;;
30743;SDS011;17486;46.738;7.622;2023-03-11T16:50:14;4.10;;;3.70;;
30743;SDS011;17486;46.738;7.622;2023-03-11T16:52:40;5.75;;;4.72;;
30743;SDS011;17486;46.738;7.622;2023-03-11T16:55:05;5.78;;;5.00;;